Airport View

Enter AWOS ICAO identifier for current METAR.

ex. KFNL

KDIK 191956Z AUTO 15016G24KT 10SM CLR 31/11 A2982 RMK AO2 SLP081 T03110111

19 Aug 2019 20:17

Frequency: 118.375

Phone: 701-227-0280

Other Area AWOS: KD57 - KBWW - KHEI - K20U

TAF KDIK 191746Z 1918/2018 19012KT P6SM SKC FM192300 24013KT P6SM FEW100 SCT250 FM200100 27010KT P6SM VCTS FEW090CB SCT250 FM200300 30008KT P6SM SCT250 FM200900 34010KT P6SM SKC FM201400 04011KT P6SM FEW100 FEW200